NCAR-RAP Real-Time Weather Data

Output produced by METARs form (15 October 2019  00:01 UTC)
found at http://weather.rap.ucar.edu/surface/
 
KBDR 142352Z 22014KT 10SM CLR 18/14 A2995 RMK AO2 SLP141 T01780139 10211 20178 53018
KBDR 142252Z 20010KT 10SM CLR 18/14 A2992 RMK AO2 SLP132 T01830139
KBDR 142152Z 20006KT 10SM CLR 20/11 A2990 RMK AO2 SLP125 T02000106
KBDR 142052Z 21009KT 10SM CLR 21/11 A2989 RMK AO2 SLP123 T02060111 56012
KBDR 141952Z 22011KT 10SM CLR 21/11 A2990 RMK AO2 SLP123 T02110111
KBDR 141852Z 22007KT 10SM CLR 19/13 A2991 RMK AO2 SLP127 T01940128
KBDR 141752Z 21007KT 10SM CLR 19/12 A2993 RMK AO2 SLP135 T01890122 10194 20139 58022
KBDR 141652Z 19009KT 10SM CLR 18/13 A2995 RMK AO2 SLP142 T01780133
KBDR 141552Z 20007KT 10SM CLR 18/13 A2998 RMK AO2 SLP151 T01780128
KBDR 141452Z VRB03KT 10SM BKN034 17/13 A2999 RMK AO2 SLP157 T01720128 50000
KBDR 141430Z 16006KT 10SM SCT015 OVC035 17/13 A3000 RMK AO2 T01670128
KBDR 141405Z 00000KT 10SM BKN017 BKN037 17/13 A3000 RMK AO2 T01670128
KBDR 141352Z 00000KT 10SM FEW017 BKN037 17/12 A3001 RMK AO2 SLP161 T01670122
KBDR 141252Z 04004KT 10SM CLR 16/12 A2999 RMK AO2 SLP156 T01560122
KBDR 141201Z 00000KT 10SM SCT015 BKN034 14/12 A3000 RMK AO2 T01390117
KBDR 141152Z 00000KT 10SM BKN014 OVC034 14/12 A2999 RMK AO2 SLP157 60000 T01390117 10144 20122 53009
KBDR 141052Z 36004KT 10SM BKN011 12/11 A2998 RMK AO2 SLP152 T01220106
KBDR 140952Z AUTO 03004KT 10SM OVC010 13/11 A2997 RMK AO2 SLP147 T01330111
KBDR 140852Z AUTO 05003KT 10SM OVC013 14/12 A2997 RMK AO2 SLP147 60000 T01440117 56012
KBDR 140800Z AUTO 00000KT 10SM BKN012 BKN060 14/12 A2997 RMK AO2 T01440117
KBDR 140752Z AUTO 00000KT 10SM SCT012 OVC060 14/11 A2997 RMK AO2 SLP148 T01390111
KBDR 140652Z AUTO 03004KT 10SM SCT034 OVC041 14/11 A2999 RMK AO2 RAB00E10 SLP154 P0000 T01440111
KBDR 140552Z AUTO 36004KT 10SM BKN040 OVC050 14/11 A3000 RMK AO2 SLP159 T01440111 10167 20133 58011
KBDR 140452Z AUTO 22008KT 10SM SCT037 OVC047 17/12 A3002 RMK AO2 SLP165 T01670117 401830117
KBDR 140352Z AUTO 00000KT 10SM OVC065 14/10 A3002 RMK AO2 SLP166 T01390100
KBDR 140252Z AUTO 00000KT 10SM OVC075 14/09 A3003 RMK AO2 SLP170 T01390094 58004
KBDR 140152Z 22007KT 10SM CLR 16/10 A3004 RMK AO2 SLP172 T01610100
KBDR 140052Z 21008KT 10SM FEW100 16/10 A3005 RMK AO2 SLP176 T01560100
KBDR 132352Z 00000KT 10SM BKN070 14/07 A3005 RMK AO2 SLP174 T01440072 10178 20139 55002
KBDR 132252Z 00000KT 10SM CLR 16/07 A3004 RMK AO2 SLP171 T01560067
KBDR 132152Z 21005KT 10SM CLR 17/07 A3005 RMK AO2 SLP174 T01720072
KBDR 132052Z 22007KT 10SM SCT100 17/08 A3005 RMK AO2 SLP176 T01720078 56008
KBDR 131952Z 22008KT 10SM SCT100 18/08 A3006 RMK AO2 SLP178 T01780078
KBDR 131852Z 21009KT 10SM CLR 17/07 A3006 RMK AO2 SLP180 T01720072
KBDR 131752Z 20008KT 10SM CLR 17/07 A3008 RMK AO2 SLP184 T01720067 10183 20122 58015
KBDR 131652Z 00000KT 10SM CLR 18/05 A3009 RMK AO2 SLP190 T01780050
KBDR 131552Z VRB04KT 10SM CLR 17/06 A3011 RMK AO2 SLP194 T01670056
KBDR 131452Z VRB04KT 10SM CLR 16/06 A3012 RMK AO2 SLP199 T01560061 51011
KBDR 131352Z 32004KT 10SM CLR 14/06 A3011 RMK AO2 SLP197 T01390056
KBDR 131252Z 34009KT 10SM CLR 12/06 A3010 RMK AO2 SLP193 T01220056
KBDR 131152Z 35005KT 10SM CLR 12/06 A3009 RMK AO2 SLP189 T01220061 10139 20117 51025
KBDR 131052Z 36006KT 10SM BKN040 12/08 A3006 RMK AO2 SLP180 T01220083
KBDR 130952Z AUTO 31003KT 10SM SCT042 12/11 A3004 RMK AO2 SLP173 T01220106
KBDR 130852Z AUTO 35003KT 10SM BKN043 13/11 A3002 RMK AO2 SLP164 T01330111 53013
KBDR 130752Z AUTO 01004KT 10SM OVC040 14/12 A3000 RMK AO2 SLP157 T01390117
KBDR 130652Z AUTO 36007KT 10SM OVC044 14/12 A2999 RMK AO2 SLP155 T01390117
KBDR 130552Z AUTO 01004KT 10SM BKN047 14/12 A2998 RMK AO2 SLP151 T01390117 10156 20133 56003
KBDR 130452Z AUTO 06003KT 10SM OVC049 14/12 A2998 RMK AO2 SLP151 T01440122 401890128
KBDR 130352Z AUTO 00000KT 10SM OVC047 16/12 A2997 RMK AO2 SLP150 T01560122
KBDR 130252Z AUTO 15003KT 10SM SCT049 14/11 A2999 RMK AO2 SLP153 T01390111 51010
KBDR 130152Z 19004KT 10SM CLR 16/12 A2998 RMK AO2 SLP152 T01560117
KBDR 130052Z 00000KT 10SM CLR 14/11 A2997 RMK AO2 SLP149 T01390111